Time;durP1;ratioP1;P1;durP2;ratioP2;P2;SDS_P1;SDS_P2;PMS_P1;PMS_P2;Temp;Humidity;BMP_temperature;BMP_pressure;BME280_temperature;BME280_humidity;BME280_pressure;Samples;Min_cycle;Max_cycle;Signal;HPM_P1;HPM_P2
2022/04/18 00:02:04;;;;;;;14.95;9.50;;;8.10;99.90;;;;;;5096971;28;20131;-83
2022/04/18 00:04:30;;;;;;;16.05;9.38;;;8.10;99.90;;;;;;5098795;28;20475;-85
2022/04/18 00:06:55;;;;;;;15.10;9.65;;;8.10;99.90;;;;;;5100552;28;20100;-83
2022/04/18 00:09:21;;;;;;;15.13;9.73;;;8.10;99.90;;;;;;5097313;28;20071;-83
2022/04/18 00:11:46;;;;;;;17.65;10.23;;;8.00;99.90;;;;;;5097918;28;20490;-86
2022/04/18 00:14:12;;;;;;;15.35;9.77;;;8.00;99.90;;;;;;5097547;28;20055;-86
2022/04/18 00:16:38;;;;;;;15.65;9.77;;;8.30;99.90;;;;;;5097225;28;20041;-82
2022/04/18 00:19:04;;;;;;;16.20;10.45;;;7.90;99.90;;;;;;5096659;28;20048;-85
2022/04/18 00:21:31;;;;;;;15.65;10.82;;;7.90;99.90;;;;;;5079209;28;20048;-83
2022/04/18 00:23:57;;;;;;;17.13;11.18;;;8.00;99.90;;;;;;5098199;28;20048;-83
2022/04/18 00:26:22;;;;;;;17.48;10.25;;;7.90;99.90;;;;;;5098074;28;20050;-83
2022/04/18 00:28:48;;;;;;;17.75;10.95;;;7.80;99.90;;;;;;5096374;28;20526;-82
2022/04/18 00:31:14;;;;;;;20.73;10.93;;;7.80;99.90;;;;;;5097166;28;20040;-82
2022/04/18 00:33:39;;;;;;;17.10;10.70;;;7.70;99.90;;;;;;5097388;28;20040;-83
2022/04/18 00:36:05;;;;;;;16.85;10.63;;;7.70;99.90;;;;;;5098730;28;20036;-82
2022/04/18 00:38:31;;;;;;;15.25;10.52;;;7.60;99.90;;;;;;5081395;28;20040;-85
2022/04/18 00:40:57;;;;;;;15.20;9.75;;;7.60;99.90;;;;;;5098010;28;20085;-83
2022/04/18 00:43:41;;;;;;;16.77;10.73;;;7.60;99.90;;;;;;5098213;28;20620;-82
2022/04/18 00:46:08;;;;;;;14.60;9.52;;;7.50;99.90;;;;;;5097700;28;20052;-84
2022/04/18 00:48:34;;;;;;;16.20;10.30;;;7.40;99.90;;;;;;5097410;28;20040;-83
2022/04/18 00:51:00;;;;;;;16.63;10.48;;;7.40;99.90;;;;;;5097662;28;20040;-86
2022/04/18 00:53:26;;;;;;;17.48;10.43;;;7.40;99.90;;;;;;5097051;28;20032;-87
2022/04/18 00:55:53;;;;;;;17.50;10.75;;;7.30;99.90;;;;;;5095998;28;20441;-83
2022/04/18 00:58:19;;;;;;;15.18;10.45;;;7.30;99.90;;;;;;5095101;28;20048;-86
2022/04/18 01:00:44;;;;;;;17.02;10.10;;;7.70;99.90;;;;;;5098165;28;20372;-83
2022/04/18 01:03:11;;;;;;;15.40;10.05;;;7.20;99.90;;;;;;5096245;28;20044;-86
2022/04/18 01:05:37;;;;;;;15.45;10.02;;;7.20;99.90;;;;;;5097144;28;20088;-87
2022/04/18 01:08:04;;;;;;;15.55;10.10;;;7.20;99.90;;;;;;5095470;28;20060;-83
2022/04/18 01:10:30;;;;;;;15.52;10.48;;;7.10;99.90;;;;;;5095505;28;20399;-83
2022/04/18 01:12:56;;;;;;;16.35;10.25;;;7.10;99.90;;;;;;5095351;28;20047;-85
2022/04/18 01:15:21;;;;;;;15.70;10.43;;;7.10;99.90;;;;;;5078443;28;20059;-83
2022/04/18 01:17:47;;;;;;;15.55;9.95;;;7.10;99.90;;;;;;5096629;28;20047;-85
2022/04/18 01:20:12;;;;;;;15.15;10.48;;;7.00;99.90;;;;;;5096559;28;20051;-82
2022/04/18 01:22:41;;;;;;;15.57;10.25;;;7.00;99.90;;;;;;5095600;28;20528;-83
2022/04/18 01:30:35;;;;;;;15.98;10.77;;;7.00;99.90;;;;;;5096361;28;20135;-82
2022/04/18 01:33:01;;;;;;;16.50;10.57;;;6.90;99.90;;;;;;5094713;28;20078;-83
2022/04/18 01:35:26;;;;;;;15.02;10.45;;;6.80;99.90;;;;;;5096850;28;20146;-84
2022/04/18 01:37:52;;;;;;;18.30;10.98;;;6.80;99.90;;;;;;5097030;28;20044;-84
2022/04/18 01:40:18;;;;;;;15.77;10.60;;;6.80;99.90;;;;;;5095058;28;20135;-86
2022/04/18 01:42:44;;;;;;;18.30;11.02;;;6.70;99.90;;;;;;5096253;28;20097;-82
2022/04/18 01:45:10;;;;;;;16.05;10.77;;;6.70;99.90;;;;;;5094972;28;20071;-85
2022/04/18 01:47:35;;;;;;;18.02;11.88;;;6.70;99.90;;;;;;5095494;28;20395;-86
2022/04/18 01:50:01;;;;;;;17.83;11.45;;;6.60;99.90;;;;;;5097689;28;20479;-83
2022/04/18 01:52:26;;;;;;;17.90;11.32;;;6.70;99.90;;;;;;5099774;28;20402;-82
2022/04/18 01:54:52;;;;;;;16.95;11.48;;;6.60;99.90;;;;;;5095738;28;20051;-83
2022/04/18 01:57:18;;;;;;;17.70;12.35;;;6.60;99.90;;;;;;5096754;28;20441;-82
2022/04/18 01:59:44;;;;;;;18.50;11.68;;;6.90;99.90;;;;;;5096964;28;20079;-85
2022/04/18 02:02:10;;;;;;;15.80;11.63;;;6.50;99.90;;;;;;5095560;28;20391;-84
2022/04/18 02:04:35;;;;;;;17.55;11.52;;;6.50;99.90;;;;;;5098244;28;20115;-83
2022/04/18 02:07:01;;;;;;;16.25;11.63;;;6.50;99.90;;;;;;5105723;28;20044;-86
2022/04/18 02:09:26;;;;;;;17.38;11.50;;;6.40;99.90;;;;;;5104324;28;20063;-83
2022/04/18 02:11:52;;;;;;;17.63;11.05;;;6.40;99.90;;;;;;5099448;28;20040;-82
2022/04/18 02:14:18;;;;;;;18.58;11.98;;;6.40;99.90;;;;;;5097535;28;20040;-83
2022/04/18 02:16:43;;;;;;;17.80;12.02;;;6.30;99.90;;;;;;5097470;28;20036;-85
2022/04/18 02:19:09;;;;;;;19.42;12.02;;;6.30;99.90;;;;;;5095772;28;20047;-82
2022/04/18 02:21:34;;;;;;;18.88;12.63;;;6.30;99.90;;;;;;5096496;28;20040;-82
2022/04/18 02:24:00;;;;;;;18.30;12.48;;;6.30;99.90;;;;;;5095617;28;20102;-83
2022/04/18 02:26:26;;;;;;;18.05;12.50;;;6.30;99.90;;;;;;5097259;28;20059;-85
2022/04/18 02:28:51;;;;;;;16.92;12.05;;;6.30;99.90;;;;;;5096566;28;20036;-84
2022/04/18 02:31:17;;;;;;;18.90;12.60;;;6.80;99.90;;;;;;5099127;28;20391;-86
2022/04/18 02:33:42;;;;;;;19.15;12.65;;;6.20;99.90;;;;;;5082074;28;20130;-83
2022/04/18 02:36:08;;;;;;;18.95;12.60;;;6.20;99.90;;;;;;5100990;28;20036;-82
2022/04/18 02:38:34;;;;;;;18.33;12.55;;;6.40;99.90;;;;;;5099154;28;20051;-84
2022/04/18 02:40:59;;;;;;;18.80;12.50;;;6.10;99.90;;;;;;5083560;28;20052;-86
2022/04/18 02:43:25;;;;;;;18.33;12.80;;;6.10;99.90;;;;;;5099613;28;20048;-83
2022/04/18 02:45:51;;;;;;;18.25;12.38;;;6.00;99.90;;;;;;5099625;28;20142;-82
2022/04/18 02:48:16;;;;;;;21.48;13.38;;;6.00;99.90;;;;;;5101247;28;20067;-85
2022/04/18 02:50:42;;;;;;;19.15;12.98;;;6.00;99.90;;;;;;5099519;28;20044;-86
2022/04/18 02:53:08;;;;;;;22.38;13.43;;;5.90;99.90;;;;;;5100176;28;20040;-82
2022/04/18 02:55:34;;;;;;;22.30;13.02;;;5.90;99.90;;;;;;5082655;28;20044;-86
2022/04/18 02:57:59;;;;;;;20.17;13.07;;;5.80;99.90;;;;;;5101665;28;20055;-83
2022/04/18 03:00:25;;;;;;;22.63;12.88;;;5.80;99.90;;;;;;5100509;28;20055;-83
2022/04/18 03:02:51;;;;;;;21.77;13.65;;;5.80;99.90;;;;;;5101768;28;20051;-85
2022/04/18 03:05:16;;;;;;;19.98;13.23;;;5.80;99.90;;;;;;5100072;28;20193;-83
2022/04/18 03:07:42;;;;;;;21.60;13.18;;;5.80;99.90;;;;;;5101664;28;20040;-82
2022/04/18 03:10:08;;;;;;;18.73;13.07;;;5.70;99.90;;;;;;5100548;28;20047;-83
2022/04/18 03:12:34;;;;;;;20.25;12.73;;;5.70;99.90;;;;;;5099854;28;20036;-83
2022/04/18 03:15:00;;;;;;;20.58;13.50;;;5.70;99.90;;;;;;5100304;28;20078;-83
2022/04/18 03:17:26;;;;;;;22.70;13.38;;;5.60;99.90;;;;;;5100478;28;20103;-83
2022/04/18 03:19:52;;;;;;;21.65;13.15;;;5.60;99.90;;;;;;5100515;28;20044;-85
2022/04/18 03:22:19;;;;;;;21.05;13.80;;;5.60;99.90;;;;;;5102391;28;20048;-84
2022/04/18 03:24:45;;;;;;;18.10;12.98;;;5.50;99.90;;;;;;5099883;28;20039;-82
2022/04/18 03:27:11;;;;;;;21.85;13.30;;;5.80;99.90;;;;;;5100617;28;20044;-86
2022/04/18 03:29:37;;;;;;;22.27;13.52;;;5.50;99.90;;;;;;5101106;28;20234;-85
2022/04/18 03:32:04;;;;;;;19.20;13.18;;;6.00;99.90;;;;;;5101236;28;20403;-83
2022/04/18 03:34:29;;;;;;;21.08;14.00;;;5.50;99.90;;;;;;5102347;28;20578;-86
2022/04/18 03:39:52;;;;;;;21.15;13.95;;;5.50;99.90;;;;;;5102300;28;20052;-83
2022/04/18 03:42:32;;;;;;;25.20;14.73;;;5.40;99.90;;;;;;5100051;28;20106;-83
2022/04/18 03:45:00;;;;;;;22.17;13.50;;;5.40;99.90;;;;;;5081679;28;20083;-86
2022/04/18 03:47:27;;;;;;;19.73;13.40;;;5.40;99.90;;;;;;5099829;28;20040;-83
2022/04/18 03:49:53;;;;;;;18.80;13.38;;;5.40;99.90;;;;;;5099860;28;20382;-83
2022/04/18 03:52:19;;;;;;;23.85;14.65;;;5.40;99.90;;;;;;5101399;28;20036;-84
2022/04/18 03:54:46;;;;;;;20.10;14.00;;;5.60;99.90;;;;;;5082461;28;20482;-82
2022/04/18 03:57:12;;;;;;;22.02;13.52;;;5.30;99.90;;;;;;5100466;28;20043;-84
2022/04/18 03:59:38;;;;;;;24.02;14.35;;;5.30;99.90;;;;;;5100157;28;20051;-85
2022/04/18 04:02:04;;;;;;;22.00;13.52;;;5.30;99.90;;;;;;5101001;28;20055;-86
2022/04/18 04:04:29;;;;;;;20.25;14.48;;;5.20;99.90;;;;;;5100389;28;20044;-83
2022/04/18 04:06:55;;;;;;;23.67;14.35;;;5.20;99.90;;;;;;5101214;28;20475;-86
2022/04/18 04:09:21;;;;;;;22.23;14.40;;;5.20;99.90;;;;;;5101209;28;20502;-82
2022/04/18 04:11:46;;;;;;;22.30;14.00;;;5.70;99.90;;;;;;5100012;28;20035;-83
2022/04/18 04:14:12;;;;;;;20.95;14.00;;;5.10;99.90;;;;;;5098702;28;20048;-82
2022/04/18 04:16:38;;;;;;;20.98;14.90;;;5.10;99.90;;;;;;5098060;28;20044;-83
2022/04/18 04:19:04;;;;;;;26.00;14.60;;;5.10;99.90;;;;;;5099886;28;20460;-83
2022/04/18 04:21:30;;;;;;;21.95;14.25;;;5.10;99.90;;;;;;5098498;28;20032;-82
2022/04/18 04:23:56;;;;;;;20.38;13.65;;;5.10;99.90;;;;;;5099086;28;20040;-83
2022/04/18 04:26:21;;;;;;;25.63;15.23;;;5.10;99.90;;;;;;5098549;28;20040;-85
2022/04/18 04:28:47;;;;;;;23.92;15.18;;;5.10;99.90;;;;;;5100156;28;20047;-86
2022/04/18 04:31:13;;;;;;;21.80;15.27;;;5.00;99.90;;;;;;5100361;28;20074;-83
2022/04/18 04:33:39;;;;;;;23.15;14.45;;;5.00;99.90;;;;;;5098924;28;20048;-86
2022/04/18 04:36:04;;;;;;;23.90;14.82;;;5.00;99.90;;;;;;5099720;28;20052;-84
2022/04/18 04:38:30;;;;;;;25.63;15.27;;;5.00;99.90;;;;;;5101205;28;20036;-82
2022/04/18 04:40:57;;;;;;;24.40;14.85;;;5.00;99.90;;;;;;5083911;28;20059;-85
2022/04/18 04:43:28;;;;;;;25.80;15.88;;;5.00;99.90;;;;;;5083586;28;20055;-83
2022/04/18 04:45:57;;;;;;;25.92;15.02;;;5.00;99.90;;;;;;5101407;28;20075;-82
2022/04/18 04:48:23;;;;;;;23.88;15.75;;;5.10;99.90;;;;;;5100683;28;20040;-85
2022/04/18 04:50:50;;;;;;;24.08;15.00;;;5.40;99.90;;;;;;5082997;28;20384;-82
2022/04/18 04:53:16;;;;;;;23.35;15.52;;;5.00;99.90;;;;;;5102544;28;20080;-82
2022/04/18 04:55:41;;;;;;;25.63;16.00;;;5.00;99.90;;;;;;5099463;28;20102;-82
2022/04/18 04:58:09;;;;;;;26.88;14.85;;;5.00;99.90;;;;;;5100595;28;20043;-86
2022/04/18 05:00:35;;;;;;;24.60;16.27;;;5.00;99.90;;;;;;5101215;28;20131;-83
2022/04/18 05:03:01;;;;;;;25.48;15.32;;;5.00;99.90;;;;;;5099442;28;20079;-83
2022/04/18 05:05:27;;;;;;;25.35;16.10;;;5.10;99.90;;;;;;5098460;28;20442;-83
2022/04/18 05:07:53;;;;;;;24.38;15.40;;;5.00;99.90;;;;;;5100154;28;20058;-83
2022/04/18 05:10:19;;;;;;;23.73;15.10;;;5.10;99.90;;;;;;5099218;28;20063;-85
2022/04/18 05:12:44;;;;;;;22.83;14.43;;;5.10;99.90;;;;;;5096904;28;20526;-83
2022/04/18 05:15:10;;;;;;;25.60;15.82;;;5.90;99.90;;;;;;5098133;28;20044;-85
2022/04/18 05:17:36;;;;;;;25.20;14.77;;;5.10;99.90;;;;;;5103602;28;20040;-83
2022/04/18 05:20:04;;;;;;;25.92;15.00;;;5.20;99.90;;;;;;5102877;28;20067;-82
2022/04/18 05:22:30;;;;;;;26.02;16.02;;;5.70;99.90;;;;;;5102763;28;20067;-86
2022/04/18 05:24:56;;;;;;;22.88;15.05;;;5.20;99.90;;;;;;5100306;28;20510;-86
2022/04/18 05:27:22;;;;;;;25.20;14.82;;;5.30;99.90;;;;;;5096860;28;20059;-83
2022/04/18 05:29:48;;;;;;;26.45;14.77;;;5.40;99.90;;;;;;5098313;28;20048;-85
2022/04/18 05:32:14;;;;;;;22.38;14.57;;;5.80;99.90;;;;;;5103734;28;20123;-86
2022/04/18 05:34:41;;;;;;;21.98;14.70;;;5.40;99.90;;;;;;5098882;28;20065;-86
2022/04/18 05:37:07;;;;;;;22.95;14.82;;;5.50;99.90;;;;;;5100052;28;20058;-86
2022/04/18 05:39:33;;;;;;;21.20;14.73;;;5.80;99.90;;;;;;5098633;28;20486;-83
2022/04/18 05:41:59;;;;;;;24.77;15.93;;;5.60;99.90;;;;;;5099360;28;20051;-82
2022/04/18 05:44:25;;;;;;;22.02;15.18;;;5.70;99.90;;;;;;5099683;28;20044;-86
2022/04/18 05:46:51;;;;;;;24.25;14.75;;;5.80;99.90;;;;;;5099715;28;20036;-83
2022/04/18 05:49:17;;;;;;;21.67;14.65;;;5.80;99.90;;;;;;5099209;28;20079;-87
2022/04/18 05:51:43;;;;;;;21.98;14.52;;;5.90;99.90;;;;;;5097272;28;20036;-85
2022/04/18 05:54:09;;;;;;;22.70;15.40;;;5.90;99.90;;;;;;5097000;28;20052;-83
2022/04/18 05:56:35;;;;;;;24.25;15.15;;;6.00;99.90;;;;;;5096599;28;20082;-84
2022/04/18 05:59:01;;;;;;;22.13;14.48;;;6.10;99.90;;;;;;5099240;28;20040;-85
2022/04/18 06:01:28;;;;;;;23.05;14.82;;;6.20;99.90;;;;;;5099292;28;20048;-83
2022/04/18 06:03:55;;;;;;;20.98;14.88;;;6.30;99.90;;;;;;5097802;28;20097;-83
2022/04/18 06:06:21;;;;;;;21.65;14.65;;;6.40;99.90;;;;;;5096813;28;20087;-87
2022/04/18 06:08:47;;;;;;;21.83;14.30;;;6.50;99.90;;;;;;5097085;28;20483;-87
2022/04/18 06:11:12;;;;;;;20.90;14.02;;;6.80;99.90;;;;;;5079219;28;20055;-87
2022/04/18 06:13:38;;;;;;;21.83;14.48;;;6.70;99.90;;;;;;5097399;28;20048;-83
2022/04/18 06:16:04;;;;;;;21.45;14.30;;;7.30;99.90;;;;;;5097404;28;20094;-87
2022/04/18 06:18:30;;;;;;;21.83;14.60;;;6.90;99.90;;;;;;5078899;28;20032;-84
2022/04/18 06:20:56;;;;;;;21.65;13.82;;;6.90;99.90;;;;;;5095667;28;20051;-85
2022/04/18 06:23:21;;;;;;;21.17;14.57;;;7.10;99.90;;;;;;5096357;28;20044;-84
2022/04/18 06:25:48;;;;;;;22.02;13.95;;;7.20;99.90;;;;;;5096388;28;20091;-84
2022/04/18 06:28:14;;;;;;;18.65;13.77;;;7.30;99.90;;;;;;5096908;28;20094;-85
2022/04/18 06:30:40;;;;;;;22.77;14.60;;;7.40;99.90;;;;;;5096953;28;20471;-84
2022/04/18 06:33:09;;;;;;;24.63;14.32;;;7.60;99.90;;;;;;5097224;28;20044;-83
2022/04/18 06:35:36;;;;;;;22.27;13.27;;;7.60;99.90;;;;;;5098577;28;20048;-83
2022/04/18 06:38:01;;;;;;;20.75;13.65;;;7.90;99.90;;;;;;5080788;28;20124;-83
2022/04/18 06:40:27;;;;;;;26.60;14.20;;;8.20;99.90;;;;;;5099232;28;20140;-83
2022/04/18 06:42:53;;;;;;;20.55;13.32;;;8.00;99.90;;;;;;5096325;28;20510;-83
2022/04/18 06:45:18;;;;;;;21.85;13.45;;;8.20;99.90;;;;;;5077978;28;20127;-85
2022/04/18 06:47:44;;;;;;;19.80;13.48;;;8.30;99.90;;;;;;5092739;28;20090;-84
2022/04/18 06:50:12;;;;;;;20.02;13.13;;;8.40;99.90;;;;;;5092928;28;20422;-85
2022/04/18 06:52:46;;;;;;;18.15;12.82;;;8.50;99.90;;;;;;5092978;28;20040;-85
2022/04/18 06:55:11;;;;;;;19.92;12.05;;;8.70;99.90;;;;;;5099442;28;20055;-85
2022/04/18 06:57:38;;;;;;;18.67;11.05;;;8.90;99.90;;;;;;5092543;28;20398;-86
2022/04/18 07:00:05;;;;;;;17.77;11.32;;;9.00;99.90;;;;;;5092700;28;20123;-83
2022/04/18 07:02:31;;;;;;;16.48;10.73;;;9.20;99.90;;;;;;5092715;28;20083;-88
2022/04/18 07:04:56;;;;;;;15.73;10.75;;;9.40;99.90;;;;;;5075625;28;20092;-83
2022/04/18 07:07:22;;;;;;;17.10;10.40;;;9.50;99.90;;;;;;5099701;28;20115;-84
2022/04/18 07:09:48;;;;;;;15.07;10.52;;;9.60;99.90;;;;;;5107044;28;20032;-85
2022/04/18 07:12:13;;;;;;;15.65;10.65;;;9.70;99.90;;;;;;5102376;28;20055;-84
2022/04/18 07:14:39;;;;;;;15.48;10.15;;;9.90;99.90;;;;;;5079669;28;20090;-84
2022/04/18 07:17:06;;;;;;;16.23;10.20;;;10.00;99.90;;;;;;5094723;28;20047;-83
2022/04/18 07:19:33;;;;;;;14.85;10.20;;;10.10;99.90;;;;;;5096130;28;20479;-83
2022/04/18 07:21:59;;;;;;;15.70;10.48;;;10.10;99.90;;;;;;5098372;28;20044;-84
2022/04/18 07:24:24;;;;;;;14.82;10.27;;;10.50;99.90;;;;;;5099586;28;20051;-87
2022/04/18 07:26:50;;;;;;;16.08;10.85;;;10.80;99.90;;;;;;5097516;28;20093;-85
2022/04/18 07:29:16;;;;;;;14.90;9.93;;;10.40;99.90;;;;;;5078718;28;20044;-83
2022/04/18 07:31:42;;;;;;;16.38;10.02;;;10.50;99.90;;;;;;5095666;28;20043;-82
2022/04/18 07:34:08;;;;;;;16.85;10.20;;;10.60;99.90;;;;;;5097074;28;20460;-84
2022/04/18 07:36:33;;;;;;;17.27;10.43;;;10.70;99.90;;;;;;5095760;28;20044;-83
2022/04/18 07:39:00;;;;;;;14.63;9.80;;;10.90;99.90;;;;;;5095520;28;20044;-86
2022/04/18 07:41:28;;;;;;;14.57;9.68;;;10.90;99.90;;;;;;5096696;28;20060;-84
2022/04/18 07:43:56;;;;;;;15.45;10.73;;;11.00;99.90;;;;;;5095632;28;20051;-85
2022/04/18 07:46:23;;;;;;;14.70;9.30;;;11.10;99.90;;;;;;5096769;28;20097;-85
2022/04/18 07:48:51;;;;;;;15.02;10.05;;;11.20;99.90;;;;;;5098659;28;20047;-80
2022/04/18 07:51:36;;;;;;;13.88;10.25;;;11.30;99.90;;;;;;5098745;22;20051;-83
2022/04/18 07:54:06;;;;;;;15.83;9.80;;;11.40;99.90;;;;;;5102826;22;20121;-82
2022/04/18 07:56:33;;;;;;;15.43;9.63;;;11.50;99.90;;;;;;5091222;22;20074;-82
2022/04/18 07:58:59;;;;;;;14.52;9.80;;;12.00;99.90;;;;;;5084644;28;20113;-82
2022/04/18 08:01:25;;;;;;;14.15;9.85;;;12.30;99.90;;;;;;5066171;28;20056;-82
2022/04/18 08:03:50;;;;;;;14.60;9.23;;;11.90;99.90;;;;;;5061687;28;20087;-88
2022/04/18 08:06:16;;;;;;;12.77;9.63;;;12.00;99.90;;;;;;5079035;28;20033;-82
2022/04/18 08:08:43;;;;;;;13.00;9.00;;;12.20;99.90;;;;;;5079071;28;20048;-83
2022/04/18 08:11:12;;;;;;;15.15;10.18;;;12.30;99.90;;;;;;5077294;28;20428;-86
2022/04/18 08:13:40;;;;;;;13.52;9.27;;;12.30;99.90;;;;;;5076825;28;20587;-89
2022/04/18 08:16:06;;;;;;;13.02;9.00;;;12.60;99.90;;;;;;5076530;28;20041;-83
2022/04/18 08:18:31;;;;;;;13.73;9.25;;;12.50;99.90;;;;;;5059441;28;20051;-86
2022/04/18 08:20:57;;;;;;;14.18;9.43;;;12.60;99.90;;;;;;5078841;28;20040;-82
2022/04/18 08:23:23;;;;;;;12.63;8.70;;;12.80;99.90;;;;;;5078179;28;20044;-88
2022/04/18 08:25:48;;;;;;;14.77;9.07;;;12.90;99.90;;;;;;5060774;28;20036;-82
2022/04/18 08:28:14;;;;;;;14.63;8.73;;;13.20;99.90;;;;;;5059851;28;20048;-82
2022/04/18 08:30:40;;;;;;;12.50;8.50;;;13.20;99.90;;;;;;5082730;28;20040;-82
2022/04/18 08:33:06;;;;;;;15.07;9.25;;;13.30;99.90;;;;;;5077954;28;20045;-89
2022/04/18 08:35:34;;;;;;;13.20;8.35;;;13.50;99.90;;;;;;5075757;28;20059;-89
2022/04/18 08:38:00;;;;;;;12.20;8.10;;;13.60;99.90;;;;;;5103971;28;20027;-82
2022/04/18 08:40:27;;;;;;;11.13;7.57;;;14.20;99.90;;;;;;5081938;22;20048;-82
2022/04/18 08:43:05;;;;;;;12.73;8.57;;;13.80;99.90;;;;;;5109913;28;20044;-83
2022/04/18 08:45:30;;;;;;;12.05;8.45;;;13.80;99.90;;;;;;5111034;28;20529;-83
2022/04/18 08:53:29;;;;;;;11.68;8.57;;;13.90;99.90;;;;;;5121925;28;20048;-83
2022/04/18 08:55:56;;;;;;;13.65;8.40;;;14.30;99.90;;;;;;5101546;28;20044;-84
2022/04/18 08:58:23;;;;;;;12.82;7.68;;;14.20;99.90;;;;;;5100024;22;20056;-86
2022/04/18 09:00:49;;;;;;;12.77;8.18;;;14.30;99.90;;;;;;5084392;28;20107;-85
2022/04/18 09:03:15;;;;;;;11.18;7.70;;;14.30;99.70;;;;;;5080681;28;20040;-85
2022/04/18 09:05:41;;;;;;;12.48;8.07;;;14.40;99.40;;;;;;5095201;28;20495;-84
2022/04/18 09:08:09;;;;;;;10.35;7.28;;;14.50;99.10;;;;;;5094138;28;20040;-83
2022/04/18 09:10:35;;;;;;;10.77;7.57;;;14.70;99.10;;;;;;5095650;28;20130;-83
2022/04/18 09:13:09;;;;;;;11.43;7.60;;;14.70;97.70;;;;;;5094791;28;20051;-84
2022/04/18 09:15:42;;;;;;;11.10;7.72;;;14.80;96.30;;;;;;5093309;28;20052;-85
2022/04/18 09:18:10;;;;;;;10.05;7.40;;;14.90;97.50;;;;;;5095638;28;20136;-84
2022/04/18 09:20:49;;;;;;;10.23;7.38;;;15.00;97.40;;;;;;5077956;28;20079;-87
2022/04/18 09:23:40;;;;;;;9.57;7.75;;;15.10;95.30;;;;;;5072799;28;20049;-83
2022/04/18 09:26:08;;;;;;;10.40;7.28;;;15.10;95.30;;;;;;5072537;28;20414;-84
2022/04/18 09:28:40;;;;;;;11.88;7.68;;;15.20;95.20;;;;;;5074078;28;20049;-84
2022/04/18 09:31:07;;;;;;;9.85;7.15;;;15.30;95.80;;;;;;5072708;28;20045;-87
2022/04/18 09:33:54;;;;;;;11.68;7.07;;;15.50;95.90;;;;;;5074003;28;20448;-85
2022/04/18 09:36:21;;;;;;;10.90;6.47;;;15.60;94.80;;;;;;5073240;28;20080;-86
2022/04/18 09:38:57;;;;;;;10.02;6.18;;;15.70;95.10;;;;;;5072820;28;20072;-88
2022/04/18 09:41:29;;;;;;;10.55;6.30;;;15.90;93.90;;;;;;5071905;28;20048;-84
2022/04/18 09:43:56;;;;;;;8.18;6.13;;;16.10;94.90;;;;;;5072555;28;20068;-84
2022/04/18 09:46:22;;;;;;;8.98;5.72;;;16.30;95.00;;;;;;5072822;28;20048;-84
2022/04/18 09:48:49;;;;;;;8.80;6.07;;;16.50;93.40;;;;;;5073781;28;20036;-87
2022/04/18 09:51:27;;;;;;;9.57;6.28;;;16.50;91.90;;;;;;5072476;28;20044;-84
2022/04/18 09:53:57;;;;;;;10.13;6.85;;;16.60;92.20;;;;;;5072491;28;20557;-84
2022/04/18 09:56:23;;;;;;;8.80;6.47;;;16.60;92.80;;;;;;5072596;28;20555;-88
2022/04/18 09:58:49;;;;;;;8.63;6.47;;;16.70;93.10;;;;;;5073575;28;20114;-85
2022/04/18 10:01:16;;;;;;;9.52;6.47;;;16.90;92.10;;;;;;5073850;28;20498;-84
2022/04/18 10:03:43;;;;;;;12.35;6.97;;;17.00;92.20;;;;;;5074064;28;20048;-84
2022/04/18 10:06:10;;;;;;;6.90;5.22;;;17.10;91.40;;;;;;5072835;28;20366;-83
2022/04/18 10:08:37;;;;;;;7.90;5.70;;;17.20;88.20;;;;;;5073848;28;20045;-84
2022/04/18 10:11:05;;;;;;;7.22;5.47;;;17.30;86.80;;;;;;5073737;28;20048;-85
2022/04/18 10:13:31;;;;;;;7.82;5.10;;;17.30;84.90;;;;;;5074007;28;20045;-84
2022/04/18 10:15:59;;;;;;;8.20;5.95;;;17.40;84.30;;;;;;5073682;28;20056;-88
2022/04/18 10:18:25;;;;;;;7.90;5.78;;;17.40;81.20;;;;;;5073880;28;20040;-84
2022/04/18 10:21:06;;;;;;;8.00;5.30;;;17.50;83.20;;;;;;5073392;28;20040;-85
2022/04/18 10:24:02;;;;;;;8.18;5.80;;;17.70;82.30;;;;;;5073529;28;20502;-86
2022/04/18 10:26:34;;;;;;;7.85;5.47;;;17.80;76.10;;;;;;5073706;28;20465;-87
2022/04/18 10:29:11;;;;;;;7.68;5.47;;;17.80;78.90;;;;;;5072202;28;20480;-84
2022/04/18 10:31:40;;;;;;;7.18;5.25;;;17.90;75.10;;;;;;5072623;28;20494;-84
2022/04/18 10:34:06;;;;;;;6.53;4.90;;;18.10;77.60;;;;;;5071799;28;20125;-84
2022/04/18 10:36:33;;;;;;;7.75;5.43;;;18.10;76.40;;;;;;5075107;28;20367;-84
2022/04/18 10:39:05;;;;;;;6.93;4.80;;;18.30;75.70;;;;;;5073241;28;20480;-88
2022/04/18 10:41:36;;;;;;;6.25;4.78;;;18.20;73.20;;;;;;5071988;28;20546;-84
2022/04/18 10:44:06;;;;;;;7.93;5.10;;;18.20;70.10;;;;;;5073269;28;20783;-84
2022/04/18 10:46:32;;;;;;;8.63;4.90;;;18.30;73.20;;;;;;5071877;28;20502;-87
2022/04/18 10:49:04;;;;;;;7.97;5.18;;;18.40;72.60;;;;;;5055347;28;20396;-87
2022/04/18 10:51:40;;;;;;;7.57;5.30;;;18.60;74.50;;;;;;5074352;28;20044;-85
2022/04/18 10:54:22;;;;;;;7.43;5.00;;;18.70;72.90;;;;;;5077167;28;20041;-84
2022/04/18 10:57:11;;;;;;;7.63;5.35;;;18.90;68.20;;;;;;5076918;28;20044;-85
2022/04/18 10:59:47;;;;;;;7.13;4.80;;;18.90;68.00;;;;;;5076526;28;20056;-87
2022/04/18 11:02:39;;;;;;;6.70;5.03;;;19.00;68.20;;;;;;5077890;28;20055;-85
2022/04/18 11:05:06;;;;;;;7.18;4.85;;;19.10;67.90;;;;;;5076914;28;20044;-84
2022/04/18 11:07:39;;;;;;;5.40;4.53;;;19.10;67.70;;;;;;5076370;28;20044;-84
2022/04/18 11:10:19;;;;;;;8.38;4.90;;;19.20;65.40;;;;;;5077994;28;20032;-84
2022/04/18 11:12:44;;;;;;;6.30;3.97;;;19.40;68.90;;;;;;5077357;28;20048;-86
2022/04/18 11:15:10;;;;;;;5.13;3.40;;;19.50;68.50;;;;;;5077672;28;20048;-85
2022/04/18 11:17:42;;;;;;;4.68;3.50;;;19.70;67.00;;;;;;5077646;28;20106;-85
2022/04/18 11:20:35;;;;;;;5.53;3.55;;;19.80;64.60;;;;;;5076180;28;20045;-90
2022/04/18 11:23:26;;;;;;;5.95;3.85;;;19.90;63.20;;;;;;5077944;28;20059;-88
2022/04/18 11:26:00;;;;;;;5.20;3.50;;;19.90;59.60;;;;;;5076617;28;20127;-85
2022/04/18 11:28:34;;;;;;;6.45;3.90;;;19.90;61.90;;;;;;5076435;28;20041;-86
2022/04/18 11:31:00;;;;;;;4.60;3.20;;;19.90;62.30;;;;;;5076097;28;20051;-86
2022/04/18 11:33:26;;;;;;;3.83;2.70;;;20.10;62.40;;;;;;5076169;28;20505;-84
2022/04/18 11:35:59;;;;;;;4.50;3.47;;;20.10;61.20;;;;;;5078706;28;20154;-84
2022/04/18 11:38:25;;;;;;;4.68;2.90;;;20.00;56.80;;;;;;5076829;28;20119;-85
2022/04/18 11:40:51;;;;;;;4.47;2.90;;;20.20;59.40;;;;;;5075763;28;20411;-84
2022/04/18 11:43:17;;;;;;;4.63;2.85;;;20.20;58.80;;;;;;5076659;28;20056;-85
2022/04/18 11:45:43;;;;;;;5.22;2.80;;;20.20;57.80;;;;;;5076303;28;20562;-86
2022/04/18 11:48:12;;;;;;;3.85;2.50;;;20.40;57.80;;;;;;5075695;28;20044;-85
2022/04/18 11:50:41;;;;;;;3.70;2.10;;;20.50;56.00;;;;;;5076610;28;20127;-84
2022/04/18 11:53:09;;;;;;;4.13;2.70;;;20.50;54.10;;;;;;5076243;28;20047;-86
2022/04/18 11:55:46;;;;;;;4.25;2.30;;;20.60;54.80;;;;;;5075937;28;20113;-87
2022/04/18 11:58:19;;;;;;;3.50;2.65;;;20.80;52.90;;;;;;5087389;28;20051;-85
2022/04/18 12:09:07;;;;;;;3.75;2.45;;;21.00;51.60;;;;;;5074857;28;19920;-88
2022/04/18 12:11:36;;;;;;;3.75;2.63;;;21.20;55.40;;;;;;5060820;28;20062;-86
2022/04/18 12:14:02;;;;;;;4.95;2.70;;;21.20;52.10;;;;;;5087239;28;20040;-86
2022/04/18 12:16:32;;;;;;;3.58;2.83;;;21.20;53.70;;;;;;5082712;28;20488;-85
2022/04/18 12:18:58;;;;;;;5.15;2.88;;;21.30;51.90;;;;;;5086081;28;20086;-85
2022/04/18 12:21:25;;;;;;;3.85;2.78;;;21.40;53.40;;;;;;5088268;28;20117;-85
2022/04/18 12:24:00;;;;;;;4.30;2.97;;;21.30;53.10;;;;;;5078053;28;20090;-84
2022/04/18 12:26:33;;;;;;;4.03;3.05;;;21.50;53.70;;;;;;5074106;28;20048;-84
2022/04/18 12:29:10;;;;;;;3.45;2.60;;;21.60;52.50;;;;;;5074170;28;20067;-84
2022/04/18 12:31:42;;;;;;;4.47;3.30;;;21.50;52.80;;;;;;5074136;28;20052;-87
2022/04/18 12:34:19;;;;;;;4.28;3.13;;;21.70;53.80;;;;;;5073871;28;20124;-84
2022/04/18 12:36:45;;;;;;;4.40;3.15;;;21.80;52.40;;;;;;5075348;28;20052;-85
2022/04/18 12:39:21;;;;;;;5.88;3.33;;;22.00;54.60;;;;;;5075215;28;20074;-86
2022/04/18 12:41:46;;;;;;;4.63;3.10;;;22.00;54.20;;;;;;5075213;28;20492;-86
2022/04/18 12:44:14;;;;;;;4.95;2.97;;;22.10;53.50;;;;;;5073759;28;20076;-89
2022/04/18 12:46:41;;;;;;;3.92;2.72;;;22.00;51.80;;;;;;5073795;28;20487;-88
2022/04/18 12:49:10;;;;;;;3.75;2.80;;;22.10;53.50;;;;;;5075064;28;20036;-88
2022/04/18 12:51:42;;;;;;;4.78;3.00;;;22.30;53.70;;;;;;5073835;28;20040;-85
2022/04/18 12:54:23;;;;;;;4.65;2.67;;;22.40;53.20;;;;;;5056738;28;20094;-85
2022/04/18 12:56:50;;;;;;;4.85;3.28;;;22.40;50.50;;;;;;5074210;28;20045;-87
2022/04/18 12:59:27;;;;;;;4.53;2.70;;;22.20;51.40;;;;;;5073165;28;20070;-85
2022/04/18 13:02:05;;;;;;;3.80;3.08;;;22.20;50.50;;;;;;5074673;28;20565;-86
2022/04/18 13:04:30;;;;;;;4.97;3.20;;;22.40;50.40;;;;;;5075734;28;20036;-85